createdAt,value
2022-08-17T00:00:43.028Z,100312.47
2022-08-17T00:01:03.501Z,100304.47
2022-08-17T00:01:28.756Z,100313.50
2022-08-17T00:01:53.416Z,100312.47
2022-08-17T00:02:22.410Z,100306.50
2022-08-17T00:03:02.844Z,100312.81
2022-08-17T00:03:26.805Z,100303.41
2022-08-17T00:03:51.155Z,100312.66
2022-08-17T00:04:13.030Z,100307.84
2022-08-17T00:04:38.584Z,100313.66
2022-08-17T00:05:00.311Z,100306.66
2022-08-17T00:05:22.181Z,100303.63
2022-08-17T00:05:47.114Z,100307.34
2022-08-17T00:06:12.115Z,100308.22
2022-08-17T00:06:35.596Z,100311.78
2022-08-17T00:06:57.278Z,100309.22
2022-08-17T00:07:19.952Z,100303.94
2022-08-17T00:07:41.681Z,100312.47
2022-08-17T00:08:04.722Z,100315.03
2022-08-17T00:08:29.195Z,100314.88
2022-08-17T00:08:54.736Z,100313.84
2022-08-17T00:09:18.377Z,100306.72
2022-08-17T00:09:40.981Z,100315.41
2022-08-17T00:10:02.684Z,100310.81
2022-08-17T00:10:24.708Z,100313.38
2022-08-17T00:10:48.054Z,100312.19
2022-08-17T00:11:12.633Z,100308.41
2022-08-17T00:11:37.408Z,100320.03
2022-08-17T00:12:40.551Z,100316.28
2022-08-17T00:12:44.525Z,100309.84
2022-08-17T00:13:08.525Z,100313.41
2022-08-17T00:13:33.250Z,100308.69
2022-08-17T00:13:58.494Z,100309.53
2022-08-17T00:14:21.997Z,100305.78
2022-08-17T00:14:43.699Z,100309.38
2022-08-17T00:15:08.804Z,100313.81
2022-08-17T00:15:32.461Z,100309.38
2022-08-17T00:15:59.636Z,100311.94
2022-08-17T00:16:55.327Z,100311.94
2022-08-17T00:17:06.400Z,100310.22
2022-08-17T00:17:28.138Z,100304.78
2022-08-17T00:17:52.373Z,100304.78
2022-08-17T00:19:01.134Z,100300.19
2022-08-17T00:19:07.074Z,100302.75
2022-08-17T00:19:29.937Z,100304.44
2022-08-17T00:19:51.851Z,100301.91
2022-08-17T00:20:14.003Z,100294.88
2022-08-17T00:20:36.949Z,100313.31
2022-08-17T00:21:00.418Z,100314.31
2022-08-17T00:21:23.805Z,100308.22
2022-08-17T00:22:31.479Z,100303.75
2022-08-17T00:22:35.265Z,100313.91
2022-08-17T00:23:06.889Z,100309.31
2022-08-17T00:23:28.827Z,100304.88
2022-08-17T00:23:50.918Z,100307.44
2022-08-17T00:24:13.183Z,100305.38
2022-08-17T00:24:36.073Z,100306.41
2022-08-17T00:24:57.785Z,100305.38
2022-08-17T00:25:20.050Z,100311.59
2022-08-17T00:25:43.282Z,100304.72
2022-08-17T00:26:06.819Z,100312.25
2022-08-17T00:26:43.671Z,100304.94
2022-08-17T00:27:07.605Z,100313.81
2022-08-17T00:27:29.295Z,100295.50
2022-08-17T00:27:51.938Z,100308.88
2022-08-17T00:28:16.973Z,100300.03
2022-08-17T00:28:40.004Z,100311.78
2022-08-17T00:29:02.432Z,100301.91
2022-08-17T00:29:26.468Z,100306.34
2022-08-17T00:29:48.225Z,100312.94
2022-08-17T00:30:12.448Z,100307.34
2022-08-17T00:30:52.978Z,100308.34
2022-08-17T00:31:16.437Z,100308.34
2022-08-17T00:31:38.139Z,100306.50
2022-08-17T00:32:01.456Z,100303.63
2022-08-17T00:33:22.859Z,100307.00
2022-08-17T00:33:31.156Z,100306.84
2022-08-17T00:33:53.455Z,100306.16
2022-08-17T00:34:16.426Z,100306.16
2022-08-17T00:34:38.207Z,100304.63
2022-08-17T00:34:59.909Z,100284.78
2022-08-17T00:35:23.796Z,100300.19
2022-08-17T00:35:50.004Z,100291.00
2022-08-17T00:36:12.346Z,100305.13
2022-08-17T00:36:34.374Z,100305.78
2022-08-17T00:36:56.146Z,100301.03
2022-08-17T00:37:18.838Z,100294.03
2022-08-17T00:37:40.704Z,100300.53
2022-08-17T00:38:04.074Z,100287.72
2022-08-17T00:38:28.265Z,100303.91
2022-08-17T00:38:51.248Z,100304.78
2022-08-17T00:39:12.949Z,100301.03
2022-08-17T00:39:34.786Z,100300.03
2022-08-17T00:39:56.535Z,100303.91
2022-08-17T00:40:18.962Z,100297.81
2022-08-17T00:40:45.665Z,100300.19
2022-08-17T00:41:09.525Z,100298.63
2022-08-17T00:41:31.318Z,100293.03
2022-08-17T00:41:53.421Z,100291.31
2022-08-17T00:42:17.477Z,100298.63
2022-08-17T00:42:42.883Z,100296.94
2022-08-17T00:43:13.672Z,100287.91
2022-08-17T00:43:38.583Z,100287.91
2022-08-17T00:44:03.362Z,100298.81
2022-08-17T00:44:30.371Z,100289.63
2022-08-17T00:44:53.559Z,100294.03
2022-08-17T00:45:16.981Z,100285.84
2022-08-17T00:45:38.696Z,100291.78
2022-08-17T00:46:03.377Z,100290.91
2022-08-17T00:46:28.361Z,100287.47
2022-08-17T00:46:50.097Z,100293.97
2022-08-17T00:47:11.706Z,100294.84
2022-08-17T00:47:33.434Z,100294.84
2022-08-17T00:47:56.021Z,100283.41
2022-08-17T00:48:29.372Z,100292.25
2022-08-17T00:48:53.065Z,100282.22
2022-08-17T00:49:24.714Z,100293.81
2022-08-17T00:49:47.402Z,100278.97
2022-08-17T00:50:11.878Z,100292.25
2022-08-17T00:50:34.852Z,100290.25
2022-08-17T00:51:01.957Z,100277.13
2022-08-17T00:51:31.649Z,100289.69
2022-08-17T00:51:59.022Z,100283.22
2022-08-17T00:52:25.344Z,100292.59
2022-08-17T00:52:54.701Z,100292.38
2022-08-17T00:53:16.552Z,100291.53
2022-08-17T00:53:42.662Z,100290.69
2022-08-17T00:54:09.384Z,100290.69
2022-08-17T00:54:42.218Z,100291.34
2022-08-17T00:55:06.068Z,100276.66
2022-08-17T00:55:28.150Z,100291.00
2022-08-17T00:55:50.865Z,100292.38
2022-08-17T00:56:20.972Z,100293.38
2022-08-17T00:56:47.595Z,100278.53
2022-08-17T00:57:14.284Z,100288.78
2022-08-17T00:57:40.856Z,100291.34
2022-08-17T00:58:06.608Z,100290.31
2022-08-17T00:58:36.669Z,100288.44
2022-08-17T00:58:59.949Z,100289.28
2022-08-17T00:59:25.923Z,100289.28
2022-08-17T01:00:01.552Z,100292.72
2022-08-17T01:00:28.034Z,100286.44
2022-08-17T01:00:50.978Z,100281.97
2022-08-17T01:01:21.592Z,100279.41
2022-08-17T01:01:44.148Z,100280.97
2022-08-17T01:02:08.222Z,100280.47
2022-08-17T01:02:40.412Z,100281.84
2022-08-17T01:03:10.916Z,100278.91
2022-08-17T01:03:34.861Z,100278.09
2022-08-17T01:04:00.072Z,100277.75
2022-08-17T01:04:22.640Z,100289.50
2022-08-17T01:04:47.339Z,100283.06
2022-08-17T01:05:14.788Z,100279.09
2022-08-17T01:05:38.852Z,100285.94
2022-08-17T01:06:06.167Z,100280.13
2022-08-17T01:06:30.361Z,100286.44
2022-08-17T01:06:53.090Z,100277.06
2022-08-17T01:07:16.153Z,100288.81
2022-08-17T01:07:38.149Z,100277.72
2022-08-17T01:08:00.940Z,100283.53
2022-08-17T01:08:27.094Z,100284.38
2022-08-17T01:08:51.882Z,100288.28
2022-08-17T01:09:20.314Z,100281.84
2022-08-17T01:09:44.009Z,100278.09
2022-08-17T01:10:58.690Z,100277.25
2022-08-17T01:11:00.253Z,100283.69
2022-08-17T01:11:25.308Z,100276.69
2022-08-17T01:11:52.007Z,100281.66
2022-08-17T01:12:14.100Z,100280.13
2022-08-17T01:12:36.966Z,100284.84
2022-08-17T01:13:02.326Z,100276.03
2022-08-17T01:13:25.889Z,100272.75
2022-08-17T01:13:47.723Z,100281.28
2022-08-17T01:14:09.430Z,100280.47
2022-08-17T01:14:32.067Z,100287.22
2022-08-17T01:14:55.117Z,100274.28
2022-08-17T01:15:16.924Z,100281.78
2022-08-17T01:15:41.410Z,100278.19
2022-08-17T01:16:16.547Z,100286.91
2022-08-17T01:16:38.788Z,100280.53
2022-08-17T01:17:00.652Z,100283.44
2022-08-17T01:17:22.377Z,100283.44
2022-08-17T01:17:46.999Z,100278.31
2022-08-17T01:18:11.611Z,100282.06
2022-08-17T01:18:34.214Z,100282.44
2022-08-17T01:18:59.228Z,100289.41
2022-08-17T01:19:25.756Z,100279.53
2022-08-17T01:19:47.472Z,100284.31
2022-08-17T01:20:09.615Z,100293.50
2022-08-17T01:20:32.530Z,100281.75
2022-08-17T01:21:19.323Z,100285.47
2022-08-17T01:21:50.317Z,100287.19
2022-08-17T01:22:19.745Z,100275.91
2022-08-17T01:22:41.452Z,100286.47
2022-08-17T01:23:04.179Z,100284.09
2022-08-17T01:23:27.441Z,100287.81
2022-08-17T01:23:49.311Z,100290.53
2022-08-17T01:24:11.884Z,100292.09
2022-08-17T01:24:34.877Z,100292.09
2022-08-17T01:24:59.786Z,100284.94
2022-08-17T01:25:22.348Z,100290.91
2022-08-17T01:25:45.168Z,100287.66
2022-08-17T01:26:10.809Z,100289.53
2022-08-17T01:26:34.588Z,100297.00
2022-08-17T01:26:56.630Z,100299.91
2022-08-17T01:27:21.222Z,100285.38
2022-08-17T01:27:44.862Z,100286.06
2022-08-17T01:28:06.737Z,100288.66
2022-08-17T01:28:53.191Z,100292.91
2022-08-17T01:29:14.582Z,100296.81
2022-08-17T01:29:39.514Z,100287.78
2022-08-17T01:30:04.535Z,100283.34
2022-08-17T01:30:58.619Z,100285.06
2022-08-17T01:31:22.009Z,100290.13
2022-08-17T01:31:47.080Z,100280.78
2022-08-17T01:32:09.379Z,100295.94
2022-08-17T01:32:31.789Z,100285.75
2022-08-17T01:32:54.522Z,100293.06
2022-08-17T01:33:16.337Z,100289.31
2022-08-17T01:33:38.087Z,100286.06
2022-08-17T01:34:04.582Z,100285.22
2022-08-17T01:34:38.048Z,100287.09
2022-08-17T01:35:08.259Z,100290.44
2022-08-17T01:35:29.969Z,100288.53
2022-08-17T01:35:51.685Z,100294.66
2022-08-17T01:36:13.561Z,100288.66
2022-08-17T01:36:37.010Z,100288.66
2022-08-17T01:36:59.367Z,100285.94
2022-08-17T01:37:30.352Z,100291.56
2022-08-17T01:37:52.107Z,100289.69
2022-08-17T01:38:14.818Z,100289.69
2022-08-17T01:38:38.661Z,100294.41
2022-08-17T01:39:00.676Z,100296.13
2022-08-17T01:39:29.966Z,100290.13
2022-08-17T01:39:56.959Z,100290.31
2022-08-17T01:40:22.939Z,100280.09
2022-08-17T01:40:49.463Z,100292.03
2022-08-17T01:41:23.330Z,100286.59
2022-08-17T01:41:46.569Z,100289.09
2022-08-17T01:42:15.193Z,100290.09
2022-08-17T01:42:41.723Z,100295.38
2022-08-17T01:43:11.705Z,100292.81
2022-08-17T01:43:39.882Z,100295.38
2022-08-17T01:44:04.137Z,100290.47
2022-08-17T01:44:27.678Z,100286.88
2022-08-17T01:44:54.896Z,100289.59
2022-08-17T01:45:23.802Z,100287.06
2022-08-17T01:45:48.557Z,100287.88
2022-08-17T01:46:27.717Z,100283.50
2022-08-17T01:46:50.671Z,100289.59
2022-08-17T01:47:14.098Z,100285.88
2022-08-17T01:47:37.125Z,100293.91
2022-08-17T01:47:59.863Z,100290.13
2022-08-17T01:48:21.789Z,100289.59
2022-08-17T01:48:47.215Z,100278.19
2022-08-17T01:49:11.383Z,100297.78
2022-08-17T01:49:34.175Z,100294.03
2022-08-17T01:49:56.410Z,100288.06
2022-08-17T01:50:21.621Z,100297.09
2022-08-17T01:50:45.006Z,100286.50
2022-08-17T01:51:09.199Z,100299.81
2022-08-17T01:51:32.691Z,100295.63
2022-08-17T01:51:55.218Z,100287.78
2022-08-17T01:52:17.408Z,100298.97
2022-08-17T01:52:42.398Z,100292.47
2022-08-17T01:53:07.372Z,100299.63
2022-08-17T01:53:34.821Z,100301.31
2022-08-17T01:53:58.445Z,100303.88
2022-08-17T01:54:21.920Z,100291.59
2022-08-17T01:54:47.315Z,100294.84
2022-08-17T01:55:10.065Z,100293.16
2022-08-17T01:55:34.899Z,100291.13
2022-08-17T01:55:59.917Z,100300.31
2022-08-17T01:56:24.311Z,100299.25
2022-08-17T01:56:49.806Z,100292.22
2022-08-17T01:57:12.117Z,100291.91
2022-08-17T01:57:35.117Z,100293.41
2022-08-17T01:57:56.834Z,100297.81
2022-08-17T01:58:20.225Z,100293.94
2022-08-17T01:58:42.863Z,100305.81
2022-08-17T01:59:06.417Z,100292.38
2022-08-17T01:59:28.516Z,100299.25
2022-08-17T01:59:50.271Z,100296.97
2022-08-17T02:00:13.478Z,100295.09
2022-08-17T02:01:00.557Z,100295.81
2022-08-17T02:01:20.542Z,100301.28
2022-08-17T02:01:43.529Z,100292.44
2022-08-17T02:02:07.268Z,100299.97
2022-08-17T02:02:30.621Z,100297.56
2022-08-17T02:02:54.239Z,100301.44
2022-08-17T02:03:17.143Z,100306.19
2022-08-17T02:03:38.896Z,100304.34
2022-08-17T02:04:01.919Z,100306.50
2022-08-17T02:04:24.774Z,100295.22
2022-08-17T02:04:46.477Z,100307.81
2022-08-17T02:05:08.795Z,100300.84
2022-08-17T02:05:32.723Z,100303.84
2022-08-17T02:05:54.506Z,100304.19
2022-08-17T02:06:27.546Z,100299.19
2022-08-17T02:06:53.314Z,100310.47
2022-08-17T02:07:17.105Z,100298.72
2022-08-17T02:07:59.688Z,100303.00
2022-08-17T02:08:39.218Z,100312.00
2022-08-17T02:09:07.517Z,100298.88
2022-08-17T02:09:38.324Z,100300.19
2022-08-17T02:10:04.964Z,100296.63
2022-08-17T02:10:46.799Z,100300.34
2022-08-17T02:11:12.523Z,100300.19
2022-08-17T02:11:37.613Z,100298.47
2022-08-17T02:12:38.381Z,100274.56
2022-08-17T02:12:44.001Z,100299.88
2022-08-17T02:13:05.808Z,100299.34
2022-08-17T02:13:29.747Z,100302.59
2022-08-17T02:13:55.109Z,100293.59
2022-08-17T02:14:26.253Z,100298.88
2022-08-17T02:14:47.898Z,100302.31
2022-08-17T02:15:14.401Z,100302.00
2022-08-17T02:15:38.264Z,100302.84
2022-08-17T02:16:00.380Z,100300.59
2022-08-17T02:16:22.090Z,100302.00
2022-08-17T02:16:45.061Z,100295.00
2022-08-17T02:17:06.738Z,100299.59
2022-08-17T02:17:28.408Z,100301.59
2022-08-17T02:17:54.865Z,100308.03
2022-08-17T02:18:17.666Z,100301.44
2022-08-17T02:18:39.354Z,100300.59
2022-08-17T02:19:01.536Z,100300.44
2022-08-17T02:19:23.438Z,100293.28
2022-08-17T02:19:46.132Z,100295.56
2022-08-17T02:20:09.948Z,100302.69
2022-08-17T02:20:41.181Z,100297.41
2022-08-17T02:21:06.874Z,100288.72
2022-08-17T02:21:28.843Z,100294.84
2022-08-17T02:21:53.377Z,100292.81
2022-08-17T02:22:15.737Z,100299.28
2022-08-17T02:22:43.743Z,100293.84
2022-08-17T02:23:08.810Z,100279.00
2022-08-17T02:23:34.394Z,100294.22
2022-08-17T02:23:56.309Z,100297.94
2022-08-17T02:24:58.297Z,100292.38
2022-08-17T02:25:09.229Z,100290.25
2022-08-17T02:25:33.128Z,100299.28
2022-08-17T02:25:58.577Z,100287.72
2022-08-17T02:26:25.731Z,100294.84
2022-08-17T02:26:48.447Z,100290.44
2022-08-17T02:27:11.515Z,100292.13
2022-08-17T02:27:33.196Z,100292.97
2022-08-17T02:27:54.831Z,100297.25
2022-08-17T02:28:17.630Z,100283.56
2022-08-17T02:28:39.350Z,100283.97
2022-08-17T02:29:01.989Z,100288.06
2022-08-17T02:29:23.685Z,100289.78
2022-08-17T02:29:45.535Z,100275.41
2022-08-17T02:30:59.028Z,100290.66
2022-08-17T02:31:02.455Z,100284.34
2022-08-17T02:31:24.732Z,100285.69
2022-08-17T02:31:46.678Z,100287.38
2022-08-17T02:32:21.001Z,100289.25
2022-08-17T02:32:51.525Z,100292.97
2022-08-17T02:33:13.477Z,100290.97
2022-08-17T02:33:41.902Z,100288.25
2022-08-17T02:34:06.218Z,100289.63
2022-08-17T02:34:28.079Z,100290.66
2022-08-17T02:34:50.390Z,100290.97
2022-08-17T02:35:13.329Z,100287.72
2022-08-17T02:35:37.106Z,100291.81
2022-08-17T02:35:58.806Z,100292.50
2022-08-17T02:36:25.429Z,100289.78
2022-08-17T02:36:49.036Z,100292.38
2022-08-17T02:37:10.735Z,100290.66
2022-08-17T02:37:33.720Z,100290.78
2022-08-17T02:37:56.797Z,100289.25
2022-08-17T02:38:18.483Z,100286.00
2022-08-17T02:38:43.212Z,100287.31
2022-08-17T02:39:08.802Z,100289.56
2022-08-17T02:39:31.356Z,100289.56
2022-08-17T02:39:53.202Z,100278.13
2022-08-17T02:40:16.611Z,100289.56
2022-08-17T02:40:55.702Z,100276.19
2022-08-17T02:41:17.369Z,100290.72
2022-08-17T02:41:40.099Z,100275.88
2022-08-17T02:42:04.226Z,100281.56
2022-08-17T02:42:27.977Z,100283.03
2022-08-17T02:42:49.894Z,100287.00
2022-08-17T02:43:13.759Z,100279.56
2022-08-17T02:43:36.673Z,100286.69
2022-08-17T02:43:58.862Z,100287.53
2022-08-17T02:44:39.379Z,100290.97
2022-08-17T02:45:03.433Z,100282.97
2022-08-17T02:45:25.995Z,100293.84
2022-08-17T02:45:47.704Z,100282.97
2022-08-17T02:46:09.621Z,100288.41
2022-08-17T02:46:32.217Z,100289.09
2022-08-17T02:46:53.879Z,100286.69
2022-08-17T02:47:16.485Z,100289.25
2022-08-17T02:47:38.755Z,100286.38
2022-08-17T02:48:00.532Z,100288.06
2022-08-17T02:48:30.955Z,100290.78
2022-08-17T02:48:54.665Z,100289.41
2022-08-17T02:49:16.371Z,100285.75
2022-08-17T02:49:38.452Z,100291.19
2022-08-17T02:50:01.372Z,100283.88
2022-08-17T02:50:24.240Z,100294.44
2022-08-17T02:50:46.474Z,100284.44
2022-08-17T02:51:09.086Z,100283.56
2022-08-17T02:51:32.692Z,100293.44
2022-08-17T02:51:56.874Z,100289.00
2022-08-17T02:52:19.007Z,100283.75
2022-08-17T02:53:05.413Z,100286.94
2022-08-17T02:53:28.140Z,100285.75
2022-08-17T02:54:35.725Z,100283.34
2022-08-17T02:54:42.368Z,100284.91
2022-08-17T02:55:05.387Z,100284.22
2022-08-17T02:55:29.407Z,100286.53
2022-08-17T02:55:51.057Z,100285.69
2022-08-17T02:56:14.424Z,100289.25
2022-08-17T02:56:36.084Z,100295.38
2022-08-17T02:56:57.741Z,100293.19
2022-08-17T02:57:19.683Z,100289.47
2022-08-17T02:57:41.589Z,100288.47
2022-08-17T02:58:04.696Z,100290.34
2022-08-17T02:58:34.413Z,100294.75
2022-08-17T02:58:58.572Z,100283.88
2022-08-17T02:59:20.324Z,100286.59
2022-08-17T02:59:48.296Z,100293.75
2022-08-17T03:00:18.615Z,100284.44
2022-08-17T03:00:42.815Z,100290.44
2022-08-17T03:01:05.968Z,100293.44
2022-08-17T03:01:29.009Z,100289.72
2022-08-17T03:01:50.778Z,100293.28
2022-08-17T03:02:12.711Z,100287.53
2022-08-17T03:02:38.485Z,100287.38
2022-08-17T03:03:02.293Z,100283.81
2022-08-17T03:03:26.012Z,100290.13
2022-08-17T03:03:47.979Z,100290.78
2022-08-17T03:04:09.661Z,100292.69
2022-08-17T03:04:34.407Z,100284.53
2022-08-17T03:04:57.065Z,100288.63
2022-08-17T03:05:21.673Z,100272.22
2022-08-17T03:05:44.318Z,100289.31
2022-08-17T03:06:08.460Z,100284.06
2022-08-17T03:06:31.736Z,100279.47
2022-08-17T03:06:53.387Z,100282.34
2022-08-17T03:07:16.018Z,100286.06
2022-08-17T03:07:39.277Z,100282.34
2022-08-17T03:08:01.209Z,100285.34
2022-08-17T03:08:25.370Z,100280.63
2022-08-17T03:08:47.065Z,100287.94
2022-08-17T03:09:09.853Z,100283.50
2022-08-17T03:09:31.611Z,100286.38
2022-08-17T03:09:53.930Z,100287.06
2022-08-17T03:10:17.174Z,100286.38
2022-08-17T03:10:38.815Z,100291.50
2022-08-17T03:11:01.620Z,100282.19
2022-08-17T03:11:23.493Z,100269.22
2022-08-17T03:11:46.675Z,100285.75
2022-08-17T03:12:13.702Z,100284.06
2022-08-17T03:12:37.993Z,100287.47
2022-08-17T03:13:01.608Z,100286.47
2022-08-17T03:13:23.558Z,100286.31
2022-08-17T03:13:45.841Z,100284.59
2022-08-17T03:14:07.543Z,100279.00
2022-08-17T03:14:32.158Z,100284.59
2022-08-17T03:14:53.840Z,100288.03
2022-08-17T03:15:21.937Z,100276.38
2022-08-17T03:15:45.942Z,100286.94
2022-08-17T03:16:09.296Z,100285.69
2022-08-17T03:16:31.396Z,100288.78
2022-08-17T03:16:53.233Z,100287.06
2022-08-17T03:17:17.127Z,100282.34
2022-08-17T03:17:39.498Z,100272.63
2022-08-17T03:18:03.696Z,100279.78
2022-08-17T03:18:26.407Z,100288.78
2022-08-17T03:18:48.474Z,100284.69
2022-08-17T03:19:10.280Z,100287.38
2022-08-17T03:19:33.560Z,100285.00
2022-08-17T03:19:55.527Z,100283.28
2022-08-17T03:20:17.263Z,100285.28
2022-08-17T03:20:39.201Z,100287.84
2022-08-17T03:21:04.175Z,100275.81
2022-08-17T03:21:26.890Z,100286.00
2022-08-17T03:21:54.852Z,100286.00
2022-08-17T03:22:36.408Z,100285.00
2022-08-17T03:23:02.814Z,100281.56
2022-08-17T03:23:29.600Z,100285.00
2022-08-17T03:23:54.381Z,100284.69
2022-08-17T03:24:16.438Z,100281.94
2022-08-17T03:24:40.735Z,100282.97
2022-08-17T03:25:03.798Z,100276.38
2022-08-17T03:25:30.369Z,100273.09
2022-08-17T03:25:53.264Z,100271.94
2022-08-17T03:26:16.254Z,100283.19
2022-08-17T03:26:37.991Z,100277.19
2022-08-17T03:26:59.696Z,100281.63
2022-08-17T03:27:21.394Z,100270.53
2022-08-17T03:27:43.369Z,100288.47
2022-08-17T03:28:11.926Z,100282.03
2022-08-17T03:28:33.948Z,100281.16
2022-08-17T03:28:55.622Z,100278.16
2022-08-17T03:29:19.162Z,100279.00
2022-08-17T03:29:41.781Z,100279.16
2022-08-17T03:30:05.309Z,100288.31
2022-08-17T03:30:28.133Z,100283.19
2022-08-17T03:30:51.055Z,100284.91
2022-08-17T03:31:13.879Z,100282.03
2022-08-17T03:31:36.912Z,100281.16
2022-08-17T03:31:58.806Z,100272.63
2022-08-17T03:32:20.663Z,100283.72
2022-08-17T03:32:45.709Z,100282.03
2022-08-17T03:33:10.088Z,100284.91
2022-08-17T03:33:32.301Z,100279.47
2022-08-17T03:33:54.929Z,100284.06
2022-08-17T03:34:17.108Z,100283.19
2022-08-17T03:34:38.802Z,100275.72
2022-08-17T03:35:00.466Z,100271.63
2022-08-17T03:35:25.210Z,100276.44
2022-08-17T03:35:47.886Z,100273.72
2022-08-17T03:36:10.879Z,100284.59
2022-08-17T03:36:32.526Z,100273.88
2022-08-17T03:36:57.872Z,100279.47
2022-08-17T03:37:19.537Z,100278.63
2022-08-17T03:37:42.881Z,100277.91
2022-08-17T03:38:05.254Z,100272.63
2022-08-17T03:38:28.243Z,100274.19
2022-08-17T03:38:49.868Z,100276.91
2022-08-17T03:39:13.749Z,100271.22
2022-08-17T03:39:35.504Z,100275.50
2022-08-17T03:39:57.240Z,100273.47
2022-08-17T03:40:55.559Z,100279.78
2022-08-17T03:41:03.190Z,100274.41
2022-08-17T03:41:24.860Z,100278.31
2022-08-17T03:41:46.555Z,100272.88
2022-08-17T03:42:31.283Z,100275.41
2022-08-17T03:42:55.305Z,100274.41
2022-08-17T03:43:17.876Z,100261.03
2022-08-17T03:43:39.582Z,100277.13
2022-08-17T03:44:01.489Z,100263.00
2022-08-17T03:44:24.153Z,100286.84
2022-08-17T03:44:48.561Z,100280.84
2022-08-17T03:45:15.447Z,100276.13
2022-08-17T03:45:56.425Z,100276.28
2022-08-17T03:46:36.825Z,100282.09
2022-08-17T03:47:17.221Z,100285.00
2022-08-17T03:47:57.456Z,100284.28
2022-08-17T03:48:37.844Z,100291.59
2022-08-17T03:49:18.087Z,100283.56
2022-08-17T03:49:58.406Z,100277.44
2022-08-17T03:50:35.217Z,100280.47
2022-08-17T03:51:15.970Z,100279.69
2022-08-17T03:51:55.852Z,100287.94
2022-08-17T03:52:35.994Z,100293.38
2022-08-17T03:53:16.314Z,100282.09
2022-08-17T03:54:07.702Z,100283.66
2022-08-17T03:54:44.369Z,100288.47
2022-08-17T03:55:36.020Z,100280.91
2022-08-17T03:56:18.151Z,100279.78
2022-08-17T03:56:53.171Z,100273.25
2022-08-17T03:58:32.023Z,100279.56
2022-08-17T03:59:07.842Z,100287.69
2022-08-17T03:59:58.458Z,100275.81
2022-08-17T04:00:21.758Z,100279.56
2022-08-17T04:01:03.857Z,100281.81
2022-08-17T04:01:28.751Z,100276.97
2022-08-17T04:02:20.687Z,100283.13
2022-08-17T04:03:13.486Z,100278.09
2022-08-17T04:03:58.443Z,100289.31
2022-08-17T04:06:21.633Z,100292.66
2022-08-17T04:06:49.574Z,100295.09
2022-08-17T04:07:20.749Z,100289.66
2022-08-17T04:07:44.025Z,100293.94
2022-08-17T04:08:23.881Z,100281.22
2022-08-17T04:09:00.838Z,100292.34
2022-08-17T04:09:31.991Z,100282.47
2022-08-17T04:10:00.853Z,100301.16
2022-08-17T04:10:44.915Z,100299.31
2022-08-17T04:12:09.905Z,100300.16
2022-08-17T04:12:43.536Z,100292.88
2022-08-17T04:13:06.012Z,100302.16
2022-08-17T04:13:27.857Z,100286.19
2022-08-17T04:13:50.495Z,100304.19
2022-08-17T04:14:12.246Z,100294.88
2022-08-17T04:14:53.783Z,100292.88
2022-08-17T04:15:18.529Z,100299.31
2022-08-17T04:15:40.344Z,100300.16
2022-08-17T04:16:02.045Z,100294.88
2022-08-17T04:16:24.066Z,100298.00
2022-08-17T04:16:45.744Z,100301.56
2022-08-17T04:17:08.434Z,100300.56
2022-08-17T04:17:30.146Z,100301.03
2022-08-17T04:17:52.261Z,100300.72
2022-08-17T04:18:13.950Z,100308.72
2022-08-17T04:18:35.648Z,100304.88
2022-08-17T04:18:57.353Z,100301.28
2022-08-17T04:19:19.982Z,100297.53
2022-08-17T04:19:41.700Z,100295.84
2022-08-17T04:20:04.828Z,100285.59
2022-08-17T04:20:27.522Z,100293.28
2022-08-17T04:20:50.402Z,100299.72
2022-08-17T04:21:12.044Z,100290.41
2022-08-17T04:21:34.863Z,100298.72
2022-08-17T04:21:58.711Z,100299.44
2022-08-17T04:22:30.333Z,100302.16
2022-08-17T04:22:57.215Z,100299.09
2022-08-17T04:23:19.107Z,100297.41
2022-08-17T04:23:40.782Z,100297.25
2022-08-17T04:24:05.807Z,100300.81
2022-08-17T04:24:27.687Z,100297.53
2022-08-17T04:24:49.380Z,100288.16
2022-08-17T04:25:18.997Z,100296.72
2022-08-17T04:25:44.437Z,100302.16
2022-08-17T04:26:06.184Z,100293.13
2022-08-17T04:26:52.892Z,100293.81
2022-08-17T04:27:11.311Z,100305.94
2022-08-17T04:27:33.184Z,100289.78
2022-08-17T04:27:55.077Z,100296.50
2022-08-17T04:28:18.546Z,100294.66
2022-08-17T04:28:42.032Z,100296.22
2022-08-17T04:29:21.523Z,100289.75
2022-08-17T04:30:45.431Z,100297.09
2022-08-17T04:31:15.315Z,100296.91
2022-08-17T04:33:17.273Z,100298.94
2022-08-17T04:33:50.247Z,100298.09
2022-08-17T04:35:47.788Z,100301.47
2022-08-17T04:36:23.580Z,100300.63
2022-08-17T04:37:14.822Z,100294.50
2022-08-17T04:38:38.700Z,100302.66
2022-08-17T04:39:12.978Z,100306.06
2022-08-17T04:40:32.475Z,100307.38
2022-08-17T04:41:19.873Z,100310.66
2022-08-17T04:42:48.395Z,100315.94
2022-08-17T04:43:27.097Z,100305.78
2022-08-17T04:44:55.370Z,100309.09
2022-08-17T04:45:19.366Z,100314.22
2022-08-17T04:45:55.458Z,100310.34
2022-08-17T04:46:22.525Z,100300.09
2022-08-17T04:46:44.189Z,100307.78
2022-08-17T04:47:07.334Z,100309.50
2022-08-17T04:47:32.811Z,100304.78
2022-08-17T04:47:54.529Z,100306.63
2022-08-17T04:48:17.480Z,100303.75
2022-08-17T04:48:41.537Z,100298.78
2022-08-17T04:49:06.787Z,100295.19
2022-08-17T04:49:29.397Z,100305.06
2022-08-17T04:49:51.033Z,100306.78
2022-08-17T04:50:12.780Z,100306.63
2022-08-17T04:50:34.897Z,100306.63
2022-08-17T04:50:58.492Z,100309.50
2022-08-17T04:51:25.294Z,100309.19
2022-08-17T04:51:56.147Z,100286.06
2022-08-17T04:52:29.865Z,100315.25
2022-08-17T04:53:04.462Z,100317.53
2022-08-17T04:53:27.029Z,100318.88
2022-08-17T04:53:54.335Z,100321.91
2022-08-17T04:54:22.803Z,100309.91
2022-08-17T04:54:44.456Z,100318.28
2022-08-17T04:55:07.045Z,100320.00
2022-08-17T04:55:28.999Z,100314.25
2022-08-17T04:55:51.981Z,100308.66
2022-08-17T04:56:16.730Z,100313.09
2022-08-17T04:56:40.308Z,100318.09
2022-08-17T04:57:02.014Z,100310.81
2022-08-17T04:57:23.661Z,100318.97
2022-08-17T04:57:45.344Z,100313.53
2022-08-17T04:58:08.056Z,100316.25
2022-08-17T04:58:30.735Z,100310.97
2022-08-17T04:58:54.861Z,100309.53
2022-08-17T04:59:18.958Z,100312.09
2022-08-17T04:59:42.797Z,100309.97
2022-08-17T05:00:06.332Z,100309.63
2022-08-17T05:00:28.076Z,100311.22
2022-08-17T05:00:49.832Z,100312.94
2022-08-17T05:01:12.865Z,100313.47
2022-08-17T05:01:36.977Z,100307.16
2022-08-17T05:01:58.996Z,100307.16
2022-08-17T05:02:20.661Z,100303.75
2022-08-17T05:02:49.754Z,100305.31
2022-08-17T05:03:13.245Z,100309.75
2022-08-17T05:03:35.205Z,100298.47
2022-08-17T05:03:59.346Z,100302.91
2022-08-17T05:04:34.246Z,100300.63
2022-08-17T05:04:57.269Z,100307.88
2022-08-17T05:05:20.220Z,100306.56
2022-08-17T05:05:45.195Z,100298.63
2022-08-17T05:06:11.395Z,100320.31
2022-08-17T05:06:33.780Z,100306.72